createdAt,value
2022-10-24T00:01:14.197Z,0.90
2022-10-24T00:03:41.072Z,0.82
2022-10-24T00:06:09.487Z,1.00
2022-10-24T00:08:37.827Z,0.88
2022-10-24T00:11:14.720Z,1.23
2022-10-24T00:13:42.957Z,1.25
2022-10-24T00:16:10.345Z,1.02
2022-10-24T00:18:37.296Z,1.45
2022-10-24T00:21:04.945Z,1.30
2022-10-24T00:23:31.982Z,0.85
2022-10-24T00:26:02.024Z,1.00
2022-10-24T00:28:29.814Z,1.40
2022-10-24T00:30:57.483Z,0.95
2022-10-24T00:33:25.297Z,1.38
2022-10-24T00:35:52.014Z,1.20
2022-10-24T00:38:18.946Z,1.48
2022-10-24T00:40:45.666Z,1.00
2022-10-24T00:43:26.354Z,1.35
2022-10-24T00:45:58.315Z,1.23
2022-10-24T00:48:30.874Z,1.10
2022-10-24T00:51:01.737Z,1.20
2022-10-24T00:53:31.728Z,1.73
2022-10-24T00:56:02.040Z,1.00
2022-10-24T00:58:33.163Z,1.02
2022-10-24T01:01:00.116Z,1.05
2022-10-24T01:03:27.404Z,0.85
2022-10-24T01:06:05.600Z,1.40
2022-10-24T01:09:00.869Z,1.17
2022-10-24T01:11:56.168Z,1.55
2022-10-24T01:14:54.860Z,1.30
2022-10-24T01:17:44.998Z,1.30
2022-10-24T01:20:45.390Z,1.40
2022-10-24T01:23:24.081Z,1.48
2022-10-24T01:26:15.313Z,1.70
2022-10-24T01:29:16.723Z,1.85
2022-10-24T01:31:52.502Z,1.40
2022-10-24T01:35:04.666Z,1.50
2022-10-24T01:38:12.842Z,1.70
2022-10-24T01:40:50.804Z,1.52
2022-10-24T01:43:23.027Z,1.33
2022-10-24T01:45:58.645Z,1.75
2022-10-24T01:48:27.367Z,1.30
2022-10-24T01:50:56.295Z,1.30
2022-10-24T01:53:25.108Z,1.70
2022-10-24T01:55:53.426Z,1.80
2022-10-24T01:58:20.138Z,1.25
2022-10-24T02:00:49.116Z,1.48
2022-10-24T02:03:34.090Z,2.45
2022-10-24T02:06:10.667Z,1.80
2022-10-24T02:08:45.858Z,2.05
2022-10-24T02:11:13.172Z,1.63
2022-10-24T02:13:46.498Z,1.67
2022-10-24T02:16:17.714Z,1.30
2022-10-24T02:18:44.919Z,1.77
2022-10-24T02:21:30.489Z,1.70
2022-10-24T02:24:29.215Z,2.10
2022-10-24T02:27:07.191Z,1.30
2022-10-24T02:30:02.917Z,1.58
2022-10-24T02:32:37.112Z,2.00
2022-10-24T02:35:06.419Z,2.45
2022-10-24T02:37:35.361Z,1.80
2022-10-24T02:40:05.702Z,2.30
2022-10-24T02:42:33.986Z,2.08
2022-10-24T02:45:02.107Z,1.85
2022-10-24T02:47:31.322Z,2.45
2022-10-24T02:49:58.048Z,2.13
2022-10-24T02:52:25.195Z,1.95
2022-10-24T02:54:52.199Z,2.38
2022-10-24T02:57:21.401Z,2.30
2022-10-24T02:59:48.050Z,1.85
2022-10-24T03:02:14.766Z,1.70
2022-10-24T03:04:41.456Z,2.33
2022-10-24T03:07:08.259Z,2.78
2022-10-24T03:09:35.314Z,2.03
2022-10-24T03:12:02.045Z,1.95
2022-10-24T03:14:28.763Z,2.30
2022-10-24T03:16:55.539Z,1.90
2022-10-24T03:19:23.240Z,2.50
2022-10-24T03:21:51.373Z,2.17
2022-10-24T03:24:26.783Z,2.03
2022-10-24T03:27:03.975Z,2.58
2022-10-24T03:29:30.695Z,2.63
2022-10-24T03:31:57.506Z,1.80
2022-10-24T03:34:24.373Z,2.67
2022-10-24T03:36:51.053Z,2.58
2022-10-24T03:39:17.722Z,1.98
2022-10-24T03:41:44.463Z,2.50
2022-10-24T03:44:11.161Z,1.90
2022-10-24T03:46:37.840Z,2.10
2022-10-24T03:49:04.617Z,1.83
2022-10-24T03:51:31.373Z,2.63
2022-10-24T03:53:58.079Z,2.45
2022-10-24T03:56:24.830Z,2.83
2022-10-24T03:58:51.566Z,1.70
2022-10-24T04:01:19.207Z,2.17
2022-10-24T04:03:46.315Z,2.60
2022-10-24T04:06:13.524Z,2.30
2022-10-24T04:08:40.226Z,2.80
2022-10-24T04:11:07.545Z,2.00
2022-10-24T04:13:34.248Z,2.70
2022-10-24T04:16:01.026Z,1.80
2022-10-24T04:18:27.798Z,2.10
2022-10-24T04:20:54.463Z,2.05
2022-10-24T04:23:21.147Z,1.70
2022-10-24T04:25:47.873Z,2.10
2022-10-24T04:28:14.553Z,1.75
2022-10-24T04:30:41.323Z,2.22
2022-10-24T04:33:08.045Z,2.15
2022-10-24T04:35:34.839Z,2.10
2022-10-24T04:38:01.771Z,1.88
2022-10-24T04:40:28.479Z,2.00
2022-10-24T04:42:55.606Z,2.20
2022-10-24T04:45:22.449Z,2.38
2022-10-24T04:47:49.151Z,2.00
2022-10-24T04:50:15.941Z,1.65
2022-10-24T04:52:42.654Z,2.00
2022-10-24T04:55:09.551Z,1.85
2022-10-24T04:57:36.251Z,2.05
2022-10-24T05:00:04.353Z,1.90
2022-10-24T05:02:31.167Z,1.92
2022-10-24T05:04:57.866Z,2.05
2022-10-24T05:07:24.556Z,1.88
2022-10-24T05:09:51.279Z,1.55
2022-10-24T05:14:49.576Z,2.47
2022-10-24T05:17:16.269Z,2.20
2022-10-24T05:19:42.934Z,1.67
2022-10-24T05:22:10.832Z,1.83
2022-10-24T05:24:38.048Z,1.63
2022-10-24T05:27:04.852Z,1.95
2022-10-24T05:29:59.477Z,1.48
2022-10-24T05:32:38.671Z,1.48
2022-10-24T05:35:07.578Z,1.42
2022-10-24T05:37:44.138Z,1.73
2022-10-24T05:40:23.861Z,1.50
2022-10-24T05:42:52.246Z,1.60
2022-10-24T05:45:22.317Z,1.88
2022-10-24T05:47:52.141Z,1.67
2022-10-24T05:50:25.087Z,1.70
2022-10-24T05:52:55.288Z,1.63
2022-10-24T05:55:25.367Z,1.95
2022-10-24T05:57:54.906Z,2.00
2022-10-24T06:00:27.039Z,1.98
2022-10-24T06:02:56.898Z,1.48
2022-10-24T06:05:32.480Z,1.90
2022-10-24T06:07:59.947Z,1.77
2022-10-24T06:10:31.394Z,2.15
2022-10-24T06:12:58.198Z,1.55
2022-10-24T06:15:25.012Z,2.13
2022-10-24T06:18:02.325Z,1.90
2022-10-24T06:20:36.515Z,1.90
2022-10-24T06:23:03.577Z,1.40
2022-10-24T06:25:40.718Z,1.83
2022-10-24T06:30:48.344Z,2.05
2022-10-24T06:33:24.047Z,2.35
2022-10-24T06:35:50.794Z,2.00
2022-10-24T06:38:21.715Z,1.60
2022-10-24T06:40:48.498Z,1.95
2022-10-24T06:43:23.918Z,1.55
2022-10-24T06:45:50.918Z,2.00
2022-10-24T06:48:17.766Z,1.52
2022-10-24T06:50:47.064Z,2.35
2022-10-24T06:53:13.944Z,1.80
2022-10-24T06:55:40.739Z,1.80
2022-10-24T06:58:09.856Z,1.90
2022-10-24T07:00:38.291Z,1.50
2022-10-24T07:03:06.234Z,1.88
2022-10-24T07:05:33.453Z,2.08
2022-10-24T07:08:00.392Z,2.42
2022-10-24T07:10:27.189Z,2.00
2022-10-24T07:12:56.639Z,2.22
2022-10-24T07:15:23.639Z,2.03
2022-10-24T07:17:50.628Z,2.47
2022-10-24T07:20:19.887Z,1.65
2022-10-24T07:22:46.933Z,1.70
2022-10-24T07:25:15.559Z,2.13
2022-10-24T07:27:44.681Z,1.85
2022-10-24T07:30:23.371Z,1.88
2022-10-24T07:32:50.161Z,2.47
2022-10-24T07:35:16.971Z,2.85
2022-10-24T07:37:46.800Z,2.78
2022-10-24T07:40:13.933Z,2.00
2022-10-24T07:42:40.714Z,3.15
2022-10-24T07:45:11.512Z,2.15
2022-10-24T07:47:38.434Z,3.60
2022-10-24T07:50:13.272Z,2.85
2022-10-24T07:52:39.976Z,1.80
2022-10-24T07:55:07.118Z,1.70
2022-10-24T07:57:41.289Z,1.83
2022-10-24T08:00:09.078Z,1.20
2022-10-24T08:02:42.279Z,1.77
2022-10-24T08:05:17.080Z,1.52
2022-10-24T08:07:56.090Z,1.73
2022-10-24T08:10:33.593Z,1.38
2022-10-24T08:13:03.579Z,1.67
2022-10-24T08:15:30.670Z,1.60
2022-10-24T08:18:00.585Z,1.38
2022-10-24T08:20:28.705Z,1.00
2022-10-24T08:22:55.690Z,1.52
2022-10-24T08:25:23.653Z,1.30
2022-10-24T08:27:50.558Z,1.20
2022-10-24T08:30:21.572Z,1.80
2022-10-24T08:32:50.452Z,1.77
2022-10-24T08:35:19.085Z,1.33
2022-10-24T08:37:46.214Z,1.90
2022-10-24T08:40:19.217Z,1.58
2022-10-24T08:42:49.924Z,1.38
2022-10-24T08:45:35.585Z,1.40
2022-10-24T08:48:14.470Z,1.58
2022-10-24T08:50:48.415Z,1.67
2022-10-24T08:53:29.164Z,1.80
2022-10-24T08:56:00.742Z,1.80
2022-10-24T08:58:29.195Z,1.67
2022-10-24T09:01:40.002Z,1.30
2022-10-24T09:04:21.891Z,1.92
2022-10-24T09:06:54.133Z,1.58
2022-10-24T09:09:29.921Z,1.75
2022-10-24T09:12:24.244Z,3.03
2022-10-24T09:15:06.128Z,2.10
2022-10-24T09:17:34.913Z,1.83
2022-10-24T09:20:30.564Z,1.75
2022-10-24T09:23:00.457Z,1.85
2022-10-24T09:25:33.416Z,1.77
2022-10-24T09:28:05.188Z,1.30
2022-10-24T09:30:34.361Z,1.60
2022-10-24T09:33:20.735Z,1.40
2022-10-24T09:35:53.620Z,1.50
2022-10-24T09:38:24.304Z,1.13
2022-10-24T09:40:58.450Z,1.55
2022-10-24T09:43:33.561Z,1.27
2022-10-24T09:46:06.619Z,1.25
2022-10-24T09:49:00.248Z,1.73
2022-10-24T09:51:35.764Z,1.55
2022-10-24T09:54:24.725Z,2.22
2022-10-24T09:57:01.124Z,1.30
2022-10-24T09:59:43.284Z,1.50
2022-10-24T10:02:34.663Z,1.30
2022-10-24T10:05:04.673Z,1.50
2022-10-24T10:07:39.723Z,1.70
2022-10-24T10:10:19.030Z,1.20
2022-10-24T10:13:15.658Z,1.73
2022-10-24T10:15:51.543Z,1.88
2022-10-24T10:18:39.178Z,1.42
2022-10-24T10:21:10.096Z,1.30
2022-10-24T10:23:41.836Z,1.02
2022-10-24T10:26:19.058Z,1.77
2022-10-24T10:28:54.136Z,1.30
2022-10-24T10:31:43.912Z,1.63
2022-10-24T10:34:25.575Z,2.03
2022-10-24T10:37:26.853Z,1.30
2022-10-24T10:40:29.261Z,1.98
2022-10-24T10:43:21.613Z,1.55
2022-10-24T10:45:55.840Z,1.10
2022-10-24T10:48:43.827Z,1.25
2022-10-24T10:51:36.132Z,0.82
2022-10-24T10:54:26.297Z,0.95
2022-10-24T10:57:11.524Z,0.82
2022-10-24T11:00:09.564Z,1.00
2022-10-24T11:02:36.446Z,1.80
2022-10-24T11:05:11.032Z,1.35
2022-10-24T11:07:37.807Z,0.98
2022-10-24T11:10:31.440Z,1.40
2022-10-24T11:13:03.461Z,0.90
2022-10-24T11:15:36.505Z,1.10
2022-10-24T11:18:27.859Z,0.90
2022-10-24T11:21:17.830Z,0.98
2022-10-24T11:23:55.752Z,0.90
2022-10-24T11:26:38.667Z,1.00
2022-10-24T11:29:27.287Z,0.80
2022-10-24T11:31:59.470Z,1.20
2022-10-24T11:34:41.851Z,0.93
2022-10-24T11:37:28.002Z,0.95
2022-10-24T11:40:12.299Z,0.80
2022-10-24T11:42:55.289Z,0.93
2022-10-24T11:46:08.546Z,0.73
2022-10-24T11:51:25.629Z,1.10
2022-10-24T11:54:00.413Z,0.80
2022-10-24T11:56:50.178Z,0.80
2022-10-24T11:59:21.537Z,0.80
2022-10-24T12:02:09.420Z,0.70
2022-10-24T12:05:19.399Z,1.00
2022-10-24T12:08:03.575Z,0.82
2022-10-24T12:10:55.769Z,0.70
2022-10-24T12:13:40.295Z,0.70
2022-10-24T12:16:19.476Z,0.75
2022-10-24T12:18:49.438Z,0.95
2022-10-24T12:21:26.173Z,0.50
2022-10-24T12:24:02.849Z,0.70
2022-10-24T12:26:34.805Z,1.23
2022-10-24T12:29:07.138Z,0.55
2022-10-24T12:31:47.284Z,0.70
2022-10-24T12:34:23.258Z,0.80
2022-10-24T12:37:11.812Z,0.60
2022-10-24T12:39:50.988Z,0.50
2022-10-24T12:42:22.446Z,0.93
2022-10-24T12:45:12.488Z,0.63
2022-10-24T12:48:03.719Z,0.70
2022-10-24T12:50:40.885Z,0.55
2022-10-24T12:53:34.483Z,0.77
2022-10-24T12:56:14.695Z,0.68
2022-10-24T12:58:43.330Z,1.23
2022-10-24T13:01:25.271Z,0.55
2022-10-24T13:04:06.176Z,0.57
2022-10-24T13:06:58.915Z,0.75
2022-10-24T13:09:51.770Z,0.50
2022-10-24T13:12:44.648Z,0.53
2022-10-24T13:15:43.652Z,0.63
2022-10-24T13:18:44.551Z,1.08
2022-10-24T13:21:26.807Z,0.50
2022-10-24T13:24:12.805Z,1.05
2022-10-24T13:26:50.863Z,0.70
2022-10-24T13:29:29.443Z,1.05
2022-10-24T13:32:10.395Z,1.13
2022-10-24T13:34:53.557Z,1.63
2022-10-24T13:37:30.316Z,1.35
2022-10-24T13:40:15.731Z,0.80
2022-10-24T13:43:02.186Z,0.80
2022-10-24T13:46:02.153Z,0.80
2022-10-24T13:48:40.395Z,0.75
2022-10-24T13:51:18.077Z,1.20
2022-10-24T13:54:01.835Z,0.85
2022-10-24T13:56:39.008Z,1.33
2022-10-24T13:59:42.539Z,1.23
2022-10-24T14:02:26.157Z,0.90
2022-10-24T14:05:00.401Z,0.80
2022-10-24T14:07:30.789Z,0.70
2022-10-24T14:10:09.536Z,0.90
2022-10-24T14:12:54.398Z,1.30
2022-10-24T14:15:27.913Z,1.20
2022-10-24T14:20:53.819Z,1.13
2022-10-24T14:23:35.368Z,1.13
2022-10-24T14:26:22.272Z,1.10
2022-10-24T14:28:58.600Z,1.15
2022-10-24T14:31:31.133Z,2.47
2022-10-24T14:33:59.037Z,1.65
2022-10-24T14:36:35.044Z,1.10
2022-10-24T14:39:02.711Z,0.98
2022-10-24T14:41:35.575Z,1.33
2022-10-24T14:44:02.650Z,1.10
2022-10-24T14:46:35.906Z,0.70
2022-10-24T14:49:26.204Z,0.93
2022-10-24T14:52:03.626Z,0.90
2022-10-24T14:54:33.411Z,0.90
2022-10-24T14:57:02.665Z,1.08
2022-10-24T14:59:43.870Z,1.10
2022-10-24T15:02:28.438Z,1.90
2022-10-24T15:05:21.469Z,0.80
2022-10-24T15:08:21.018Z,0.60
2022-10-24T15:11:27.358Z,1.17
2022-10-24T15:14:06.301Z,0.93
2022-10-24T15:16:39.689Z,0.60
2022-10-24T15:19:17.828Z,1.42
2022-10-24T15:21:48.438Z,1.10
2022-10-24T15:24:26.266Z,1.30
2022-10-24T15:27:25.095Z,1.70
2022-10-24T15:29:54.455Z,0.95
2022-10-24T15:32:21.515Z,0.93
2022-10-24T15:34:48.445Z,0.98
2022-10-24T15:37:21.111Z,1.20
2022-10-24T15:39:48.311Z,1.25
2022-10-24T15:42:22.887Z,1.13
2022-10-24T15:44:49.906Z,1.25
2022-10-24T15:47:25.761Z,1.00
2022-10-24T15:49:52.562Z,1.10
2022-10-24T15:52:28.677Z,1.33
2022-10-24T15:54:55.590Z,2.00
2022-10-24T15:57:29.781Z,1.90
2022-10-24T15:59:57.761Z,1.40
2022-10-24T16:02:30.690Z,1.10
2022-10-24T16:04:58.230Z,1.25
2022-10-24T16:07:26.303Z,1.08
2022-10-24T16:09:53.342Z,1.10
2022-10-24T16:12:20.226Z,1.10
2022-10-24T16:14:51.027Z,1.27
2022-10-24T16:19:47.146Z,1.10
2022-10-24T16:22:17.239Z,1.08
2022-10-24T16:24:44.075Z,0.90
2022-10-24T16:27:10.919Z,1.10
2022-10-24T16:29:40.183Z,1.50
2022-10-24T16:32:07.009Z,1.30
2022-10-24T16:34:33.924Z,1.38
2022-10-24T16:37:03.209Z,1.20
2022-10-24T16:39:30.261Z,1.30
2022-10-24T16:42:08.767Z,1.10
2022-10-24T16:44:37.011Z,1.40
2022-10-24T16:47:06.481Z,1.55
2022-10-24T16:49:33.286Z,1.48
2022-10-24T16:52:00.078Z,1.15
2022-10-24T16:54:29.091Z,0.90
2022-10-24T16:56:55.858Z,1.10
2022-10-24T16:59:22.613Z,1.48
2022-10-24T17:01:57.296Z,1.27
2022-10-24T17:04:25.475Z,1.50
2022-10-24T17:06:56.384Z,1.70
2022-10-24T17:09:23.139Z,1.70
2022-10-24T17:11:51.943Z,1.20
2022-10-24T17:14:27.351Z,0.93
2022-10-24T17:16:59.573Z,2.00
2022-10-24T17:19:26.391Z,1.95
2022-10-24T17:21:53.799Z,1.30
2022-10-24T17:24:25.662Z,1.20
2022-10-24T17:26:54.982Z,1.33
2022-10-24T17:29:25.987Z,1.30
2022-10-24T17:31:53.378Z,1.70
2022-10-24T17:34:25.639Z,1.50
2022-10-24T17:37:27.962Z,1.45
2022-10-24T17:40:11.600Z,1.30
2022-10-24T17:42:39.459Z,1.40
2022-10-24T17:45:29.582Z,1.35
2022-10-24T17:47:56.379Z,1.27
2022-10-24T17:50:23.215Z,1.38
2022-10-24T17:52:55.016Z,1.23
2022-10-24T17:58:16.015Z,1.35
2022-10-24T18:00:43.192Z,1.08
2022-10-24T18:03:10.330Z,1.40
2022-10-24T18:05:39.391Z,1.88
2022-10-24T18:08:08.241Z,2.28
2022-10-24T18:10:39.256Z,0.98
2022-10-24T18:13:06.879Z,0.70
2022-10-24T18:15:34.023Z,0.80
2022-10-24T18:18:03.996Z,0.38
2022-10-24T18:20:32.166Z,0.40
2022-10-24T18:22:59.732Z,0.45
2022-10-24T18:25:33.802Z,0.50
2022-10-24T18:28:00.715Z,0.30
2022-10-24T18:30:40.040Z,0.52
2022-10-24T18:33:09.244Z,0.50
2022-10-24T18:35:36.249Z,1.00
2022-10-24T18:38:03.100Z,3.13
2022-10-24T18:40:33.241Z,3.05
2022-10-24T18:43:05.155Z,1.80
2022-10-24T18:45:34.899Z,1.30
2022-10-24T18:48:02.147Z,0.57
2022-10-24T18:50:29.102Z,0.75
2022-10-24T18:53:01.018Z,0.70
2022-10-24T18:55:29.413Z,0.70
2022-10-24T18:57:59.617Z,0.70
2022-10-24T19:00:29.250Z,0.45
2022-10-24T19:03:14.787Z,0.80
2022-10-24T19:05:59.362Z,0.57
2022-10-24T19:08:28.772Z,0.47
2022-10-24T19:10:56.524Z,0.60
2022-10-24T19:13:36.492Z,0.85
2022-10-24T19:16:11.482Z,0.40
2022-10-24T19:18:48.917Z,0.50
2022-10-24T19:21:15.701Z,0.50
2022-10-24T19:24:22.748Z,0.60
2022-10-24T19:26:53.925Z,0.45
2022-10-24T19:29:23.232Z,0.80
2022-10-24T19:31:56.334Z,0.40
2022-10-24T19:34:35.070Z,0.70
2022-10-24T19:37:04.954Z,0.50
2022-10-24T19:39:37.670Z,0.50
2022-10-24T19:42:05.370Z,0.40
2022-10-24T19:44:32.173Z,0.40
2022-10-24T19:47:02.645Z,0.73
2022-10-24T19:49:41.863Z,0.50
2022-10-24T19:52:09.682Z,0.45
2022-10-24T19:54:44.870Z,0.50
2022-10-24T19:57:11.926Z,0.88
2022-10-24T19:59:45.919Z,0.70
2022-10-24T20:02:12.681Z,0.50
2022-10-24T20:04:40.137Z,0.50
2022-10-24T20:07:10.052Z,0.45
2022-10-24T20:09:36.871Z,0.70
2022-10-24T20:12:11.932Z,0.50
2022-10-24T20:14:43.212Z,0.50
2022-10-24T20:17:12.524Z,0.40
2022-10-24T20:19:39.295Z,0.77
2022-10-24T20:22:06.405Z,0.60
2022-10-24T20:24:36.492Z,0.60
2022-10-24T20:27:03.514Z,0.60
2022-10-24T20:29:37.824Z,0.50
2022-10-24T20:32:09.094Z,1.13
2022-10-24T20:34:38.987Z,0.60
2022-10-24T20:37:20.847Z,0.60
2022-10-24T20:39:50.642Z,0.80
2022-10-24T20:42:24.705Z,0.50
2022-10-24T20:44:51.600Z,0.40
2022-10-24T20:47:37.124Z,0.47
2022-10-24T20:50:04.409Z,0.40
2022-10-24T20:52:31.199Z,0.60
2022-10-24T20:54:57.894Z,0.50
2022-10-24T20:57:27.411Z,0.40
2022-10-24T20:59:54.226Z,0.60
2022-10-24T21:02:30.195Z,0.40
2022-10-24T21:04:59.641Z,0.30
2022-10-24T21:07:33.925Z,0.60
2022-10-24T21:10:00.818Z,0.28
2022-10-24T21:12:33.013Z,0.47
2022-10-24T21:14:59.846Z,0.30
2022-10-24T21:17:47.352Z,0.70
2022-10-24T21:20:17.587Z,0.47
2022-10-24T21:22:44.325Z,0.40
2022-10-24T21:25:10.994Z,0.40
2022-10-24T21:27:40.309Z,0.35
2022-10-24T21:30:12.166Z,0.30
2022-10-24T21:32:43.319Z,0.60
2022-10-24T21:35:10.079Z,0.38
2022-10-24T21:37:36.809Z,0.52
2022-10-24T21:40:03.876Z,0.40
2022-10-24T21:42:32.939Z,0.40
2022-10-24T21:44:59.624Z,0.52
2022-10-24T21:47:27.615Z,0.30
2022-10-24T21:49:54.276Z,0.40
2022-10-24T21:52:20.988Z,0.40
2022-10-24T21:54:47.661Z,0.40
2022-10-24T21:57:14.333Z,0.93
2022-10-24T21:59:40.983Z,0.63
2022-10-24T22:02:07.831Z,0.47
2022-10-24T22:04:34.616Z,0.43
2022-10-24T22:07:01.318Z,0.50
2022-10-24T22:09:28.552Z,0.60
2022-10-24T22:11:57.639Z,0.75
2022-10-24T22:14:24.945Z,1.13
2022-10-24T22:16:51.693Z,0.82
2022-10-24T22:19:18.502Z,0.77
2022-10-24T22:21:47.943Z,0.68
2022-10-24T22:24:20.458Z,0.50
2022-10-24T22:26:48.163Z,0.70
2022-10-24T22:29:17.469Z,0.60
2022-10-24T22:31:44.971Z,1.33
2022-10-24T22:34:16.311Z,0.80
2022-10-24T22:37:27.731Z,0.60
2022-10-24T22:39:54.651Z,0.70
2022-10-24T22:42:21.590Z,0.57
2022-10-24T22:44:48.868Z,0.70
2022-10-24T22:47:34.583Z,1.00
2022-10-24T22:50:19.296Z,0.70
2022-10-24T22:52:46.550Z,0.80
2022-10-24T22:55:25.152Z,0.50
2022-10-24T22:57:52.122Z,0.90
2022-10-24T23:00:19.510Z,0.63
2022-10-24T23:02:46.650Z,0.73
2022-10-24T23:05:27.965Z,0.90
2022-10-24T23:08:05.278Z,1.00
2022-10-24T23:10:32.934Z,0.68
2022-10-24T23:13:00.211Z,0.68
2022-10-24T23:15:27.645Z,0.60
2022-10-24T23:17:54.604Z,0.80
2022-10-24T23:20:42.914Z,0.52
2022-10-24T23:23:17.281Z,1.10
2022-10-24T23:26:13.232Z,0.93
2022-10-24T23:28:45.635Z,0.85
2022-10-24T23:31:12.539Z,0.93
2022-10-24T23:33:39.674Z,0.70
2022-10-24T23:36:14.899Z,1.00
2022-10-24T23:38:41.818Z,0.80
2022-10-24T23:41:10.661Z,0.90
2022-10-24T23:43:37.579Z,0.80
2022-10-24T23:46:19.109Z,0.80
2022-10-24T23:48:54.656Z,1.10
2022-10-24T23:51:31.138Z,0.70
2022-10-24T23:53:58.439Z,0.93
2022-10-24T23:56:27.477Z,0.80
2022-10-24T23:58:55.180Z,0.80
